Weather reports worldwide

Advertisment
Bealach, United Kingdom (3039): temperature & dewpoint: 18.06.2017 04:00:00 - 24.06.2017 04:00:00 (BST)Bealach, United Kingdom (3039): temperature 5cm: 18.06.2017 04:00:00 - 24.06.2017 04:00:00 (BST)Bealach, United Kingdom (3039): wind speed & gusts: 18.06.2017 04:00:00 - 24.06.2017 04:00:00 (BST)Bealach, United Kingdom (3039): wind direction: 18.06.2017 04:00:00 - 24.06.2017 04:00:00 (BST)Bealach, United Kingdom (3039): visibility: 18.06.2017 04:00:00 - 24.06.2017 04:00:00 (BST)Bealach, United Kingdom (3039): precipitation: 18.06.2017 04:00:00 - 24.06.2017 04:00:00 (BST)
Date & Time tt [°C] td [°C] tt 5cm [°C] ff [km/h] ff [kn] fx [km/h] fx [kn] dd vv [km] rr [mm]
24.06.2017 04:00:00 4,5 4,5 - 65 35 80 43 WSW - -
24.06.2017 03:00:00 4,6 4,6 - 57 31 74 40 WSW - -
24.06.2017 02:00:00 4,4 4,4 - 57 31 81 44 WSW - -
24.06.2017 01:00:00 4,7 4,7 - 63 34 80 43 WSW - -
24.06.2017 00:00:00 4,8 4,8 - 54 29 72 39 WSW - -
23.06.2017 23:00:00 4,9 4,9 - 24 13 - - SW - -
23.06.2017 22:00:00 4,9 4,9 - 34 18 50 27 SW - -
23.06.2017 21:00:00 5,0 5,0 - 39 21 61 33 SSW - -
23.06.2017 20:00:00 5,2 5,2 - 46 25 80 43 SW - -
23.06.2017 19:00:00 5,4 5,3 - 67 36 80 43 WSW - -
23.06.2017 18:00:00 5,9 5,9 - 44 24 67 36 WSW - -
23.06.2017 17:00:00 5,5 5,5 - 57 31 68 37 WSW - -
23.06.2017 16:00:00 5,6 5,6 - 50 27 68 37 WSW - -
23.06.2017 15:00:00 5,6 5,6 - 55 30 67 36 WSW - -
23.06.2017 14:00:00 5,7 5,7 - 50 27 63 34 WSW - -
23.06.2017 13:00:00 5,5 5,5 - 55 30 70 38 WSW - -
23.06.2017 12:00:00 6,0 6,0 - 52 28 72 39 WSW - -
23.06.2017 11:00:00 6,0 6,0 - 50 27 80 43 W - -
23.06.2017 10:00:00 6,5 6,5 - 54 29 80 43 W - -
23.06.2017 09:00:00 6,9 6,9 - 59 32 85 46 WSW - -
23.06.2017 08:00:00 7,0 7,0 - 57 31 87 47 WSW - -
23.06.2017 07:00:00 7,6 7,6 - 67 36 109 59 WSW - -
23.06.2017 06:00:00 8,8 8,8 - 89 48 111 60 SSW - -
23.06.2017 05:00:00 8,5 8,5 - 83 45 113 61 SSW - -
23.06.2017 04:00:00 8,3 8,3 - 81 44 102 55 S - -
23.06.2017 03:00:00 8,0 8,0 - 72 39 100 54 S - -
23.06.2017 02:00:00 7,8 7,8 - 70 38 94 51 S - -
23.06.2017 01:00:00 7,7 7,7 - 55 30 100 54 S - -
23.06.2017 00:00:00 7,7 7,7 - 52 28 102 55 S - -
22.06.2017 23:00:00 7,8 7,8 - 80 43 94 51 SSW - -
22.06.2017 22:00:00 7,6 7,6 - 63 34 83 45 S 0,3 -
22.06.2017 21:00:00 7,2 7,2 - 52 28 74 40 S - -
22.06.2017 20:00:00 7,0 7,0 - 41 22 70 38 S - -
22.06.2017 19:00:00 6,8 6,8 - 57 31 74 40 SSW - -
22.06.2017 18:00:00 7,1 7,1 - 52 28 65 35 SSW - -
22.06.2017 17:00:00 7,5 7,5 - 48 26 61 33 SSW - -
22.06.2017 16:00:00 7,6 7,6 - 42 23 50 27 SSW - -
22.06.2017 15:00:00 7,4 7,4 - 35 19 52 28 SSW - -
22.06.2017 14:00:00 7,3 7,2 - 39 21 48 26 SSW - -
22.06.2017 13:00:00 6,9 6,8 - 26 14 - - SSW - -
22.06.2017 12:00:00 6,8 6,8 - 18 10 - - SSW - -
22.06.2017 11:00:00 6,7 6,6 - 18 10 - - W - -
22.06.2017 10:00:00 6,7 6,7 - 16 9 - - W - -
22.06.2017 09:00:00 6,1 6,1 - 16 9 - - WNW - -
22.06.2017 08:00:00 6,1 6,1 - 13 7 - - W - -
22.06.2017 07:00:00 6,1 6,1 - 15 8 - - W - -
22.06.2017 06:00:00 6,4 6,4 - 15 8 - - WNW - -
22.06.2017 05:00:00 6,9 6,9 - 18 10 - - W - -
22.06.2017 04:00:00 7,2 7,2 - 18 10 - - W - -
22.06.2017 03:00:00 8,2 8,2 - 13 7 - - WNW - -
22.06.2017 02:00:00 8,9 8,9 - 21 11 - - WSW - -
22.06.2017 01:00:00 9,0 9,0 - 18 10 - - SW - -
22.06.2017 00:00:00 9,0 9,0 - 24 13 - - WSW - -
21.06.2017 23:00:00 9,1 9,1 - 18 10 - - S - -
21.06.2017 22:00:00 9,3 9,3 - 21 11 - - SW 0,3 -
21.06.2017 21:00:00 9,5 9,5 - 31 17 - - SW - -
21.06.2017 20:00:00 9,9 9,8 - 39 21 61 33 SSW - -
21.06.2017 19:00:00 10,0 10,0 - 50 27 63 34 SSW - -
21.06.2017 18:00:00 10,9 10,9 - 55 30 72 39 SSW - -
21.06.2017 17:00:00 11,9 11,9 - 59 32 76 41 SSW - -
21.06.2017 16:00:00 12,2 12,2 - 59 32 80 43 S - -
21.06.2017 15:00:00 12,4 12,4 - 55 30 87 47 S - -
21.06.2017 14:00:00 12,4 12,4 - 44 24 80 43 S - -
21.06.2017 13:00:00 12,7 12,6 - 55 30 72 39 S - -
21.06.2017 12:00:00 13,2 11,8 - 37 20 61 33 S - -
21.06.2017 11:00:00 13,4 9,6 - 18 10 - - SE - -
21.06.2017 10:00:00 12,2 9,8 12,3 13 7 - - SE - 0,9
21.06.2017 09:00:00 12,0 10,4 - 28 15 - - SSE - -
21.06.2017 08:00:00 12,1 10,1 - 31 17 - - SSE - -
21.06.2017 07:00:00 11,7 9,0 - 31 17 46 25 SSE - -
21.06.2017 06:00:00 11,2 7,9 - 35 19 - - SSE - -
21.06.2017 05:00:00 11,5 8,6 - 29 16 - - SSE - -
21.06.2017 04:00:00 10,9 7,5 - 24 13 - - SE - -
21.06.2017 03:00:00 10,8 6,9 - 28 15 - - SSE - -
21.06.2017 02:00:00 10,8 6,7 - 26 14 - - SSE - -
21.06.2017 01:00:00 10,1 6,7 - 11 6 - - SE - -
21.06.2017 00:00:00 9,6 6,7 - 18 10 - - E - -
20.06.2017 23:00:00 9,8 6,9 - 26 14 - - ESE - -
20.06.2017 22:00:00 10,1 4,7 - 15 8 - - ESE - -
20.06.2017 21:00:00 10,9 5,7 - 9 5 - - ESE - -
20.06.2017 20:00:00 11,5 3,5 - 13 7 - - SSE - -
20.06.2017 19:00:00 11,6 0,7 - 8 4 - - SSE - -
20.06.2017 18:00:00 11,0 -0,9 - 5 3 - - ESE - -
20.06.2017 17:00:00 10,7 0,4 - 8 4 - - SE - -
20.06.2017 16:00:00 10,1 -0,3 - 5 3 - - SE - -
20.06.2017 15:00:00 9,3 -0,6 - 4 2 - - NE - -
20.06.2017 14:00:00 7,7 1,5 - 4 2 - - SE - -
20.06.2017 13:00:00 7,6 0,9 - 4 2 - - N - -
20.06.2017 12:00:00 5,9 1,8 - 4 2 - - NNE - -
20.06.2017 11:00:00 5,7 3,3 - 5 3 - - NNE - -
20.06.2017 10:00:00 5,5 4,1 5,6 8 4 - - NNW - 0,3
20.06.2017 09:00:00 5,3 4,1 - 9 5 - - N - -
20.06.2017 08:00:00 4,6 4,2 - 11 6 - - NNW - -
20.06.2017 07:00:00 4,4 3,5 - 21 11 - - N - -
20.06.2017 06:00:00 4,1 4,1 - 15 8 - - NW - -
20.06.2017 05:00:00 4,2 4,2 - 13 7 - - NW - -
20.06.2017 04:00:00 3,9 3,9 - 13 7 - - WNW - -
20.06.2017 03:00:00 3,9 3,9 - 13 7 - - NW - -
20.06.2017 02:00:00 4,4 4,4 - 21 11 - - WNW - -
20.06.2017 01:00:00 4,2 4,2 - 22 12 - - WNW - -
20.06.2017 00:00:00 4,8 4,8 - 22 12 - - W - -
19.06.2017 23:00:00 4,9 4,9 - 22 12 - - W - -
19.06.2017 22:00:00 5,2 5,2 - 26 14 - - WNW - -
19.06.2017 21:00:00 5,5 5,1 - 26 14 - - WNW - -
19.06.2017 20:00:00 5,9 4,8 - 34 18 46 25 WNW - -
19.06.2017 19:00:00 6,3 6,1 - 35 19 - - WNW - -
19.06.2017 18:00:00 7,5 7,0 - 28 15 - - WNW - -
19.06.2017 17:00:00 6,9 6,9 - 29 16 - - WNW - -
19.06.2017 16:00:00 7,1 7,0 - 34 18 46 25 W - -
19.06.2017 15:00:00 7,1 7,1 - 29 16 - - WNW - -
19.06.2017 14:00:00 7,3 7,3 - 22 12 - - W - -
19.06.2017 13:00:00 6,6 6,6 - 21 11 - - W - -
19.06.2017 12:00:00 6,8 6,8 - 21 11 - - WNW - -
19.06.2017 11:00:00 6,2 6,2 - 15 8 - - NW - -
19.06.2017 10:00:00 5,6 5,6 7,1 13 7 - - NW - 0,5
19.06.2017 09:00:00 5,9 5,9 - 18 10 - - NW - -
19.06.2017 08:00:00 5,9 5,9 - 11 6 - - NW - -
19.06.2017 07:00:00 6,7 6,7 - 21 11 - - WNW - -
19.06.2017 06:00:00 6,8 6,8 - 13 7 - - W - -
19.06.2017 05:00:00 6,9 6,9 - 11 6 - - W - -
19.06.2017 04:00:00 6,9 6,9 - 11 6 - - WSW - -
19.06.2017 03:00:00 7,0 7,0 - 21 11 - - SW - -
19.06.2017 02:00:00 7,0 7,0 - 26 14 - - SSW - -
19.06.2017 01:00:00 6,7 6,7 - 21 11 - - S - -
19.06.2017 00:00:00 6,7 6,7 - 22 12 - - SW - -
18.06.2017 23:00:00 6,8 6,8 - 18 10 - - SSW - -
18.06.2017 22:00:00 6,9 6,9 - 11 6 - - S - -
18.06.2017 21:00:00 7,0 7,0 - 11 6 - - SSW - -
18.06.2017 20:00:00 6,9 6,9 - 18 10 - - SW - -
18.06.2017 19:00:00 6,8 6,8 - 13 7 - - WSW - -
18.06.2017 18:00:00 7,0 7,0 - 31 17 - - SSW - -
18.06.2017 17:00:00 6,7 6,7 - 29 16 - - SSW - -
18.06.2017 16:00:00 6,5 6,5 - 31 17 - - SSW - -
18.06.2017 15:00:00 6,3 6,3 - 29 16 46 25 SW - -
18.06.2017 14:00:00 6,5 6,5 - 39 21 50 27 SW - -
18.06.2017 13:00:00 7,0 7,0 - 42 23 52 28 SSW - -
18.06.2017 12:00:00 7,1 7,1 - 37 20 50 27 SSW - -
18.06.2017 11:00:00 6,7 6,7 - 39 21 63 34 SSW - -
18.06.2017 10:00:00 6,5 6,5 9,1 52 28 61 33 SSW - 0,6
18.06.2017 09:00:00 6,9 6,9 - 42 23 54 29 SW - -
18.06.2017 08:00:00 6,6 6,6 - 34 18 - - SSW - -
18.06.2017 07:00:00 7,7 7,7 - 22 12 - - SW - -
18.06.2017 06:00:00 8,4 8,4 - 34 18 - - WSW - -
18.06.2017 05:00:00 8,7 8,7 - 41 22 61 33 WSW - -
18.06.2017 04:00:00 8,8 8,8 - 50 27 63 34 SW - -

tt = temperature
td = dewpoint
tt 5cm = temperature 5cm
ff = wind speed
fx = gusts
dd = wind direction
vv = visibility
rr = precipitation

Next stations